createdAt,value
2023-04-30T00:00:59.671Z,53.30
2023-04-30T00:03:28.075Z,53.80
2023-04-30T00:05:56.414Z,54.30
2023-04-30T00:08:26.965Z,54.00
2023-04-30T00:10:55.130Z,54.80
2023-04-30T00:13:23.344Z,55.80
2023-04-30T00:15:51.886Z,56.30
2023-04-30T00:18:20.051Z,55.30
2023-04-30T00:20:48.231Z,55.70
2023-04-30T00:23:16.483Z,56.00
2023-04-30T00:25:48.580Z,55.40
2023-04-30T00:28:17.003Z,55.60
2023-04-30T00:30:46.542Z,55.60
2023-04-30T00:33:14.910Z,55.20
2023-04-30T00:35:43.524Z,54.00
2023-04-30T00:38:11.764Z,54.50
2023-04-30T00:40:41.825Z,54.10
2023-04-30T00:43:11.606Z,54.50
2023-04-30T00:45:39.797Z,55.00
2023-04-30T00:48:08.974Z,54.80
2023-04-30T00:50:37.957Z,55.50
2023-04-30T00:53:07.196Z,55.60
2023-04-30T00:55:35.472Z,55.20
2023-04-30T00:58:03.638Z,55.40
2023-04-30T01:00:33.621Z,55.90
2023-04-30T01:03:02.716Z,56.40
2023-04-30T01:05:31.051Z,56.90
2023-04-30T01:07:59.546Z,57.00
2023-04-30T01:10:35.944Z,57.10
2023-04-30T01:13:09.208Z,57.00
2023-04-30T01:15:43.955Z,56.80
2023-04-30T01:18:19.262Z,56.70
2023-04-30T01:20:51.668Z,56.20
2023-04-30T01:23:37.878Z,55.70
2023-04-30T01:26:14.641Z,55.50
2023-04-30T01:28:46.988Z,55.40
2023-04-30T01:31:16.521Z,55.90
2023-04-30T01:33:44.831Z,56.50
2023-04-30T01:36:26.790Z,57.40
2023-04-30T01:39:09.694Z,57.40
2023-04-30T01:41:49.617Z,57.70
2023-04-30T01:44:31.815Z,58.20
2023-04-30T01:47:06.473Z,58.40
2023-04-30T01:49:43.883Z,58.40
2023-04-30T01:52:20.673Z,58.80
2023-04-30T01:54:56.222Z,58.00
2023-04-30T01:57:30.673Z,57.50
2023-04-30T02:00:00.562Z,56.90
2023-04-30T02:02:28.905Z,56.10
2023-04-30T02:04:57.167Z,56.10
2023-04-30T02:07:39.091Z,56.10
2023-04-30T02:10:08.656Z,57.70
2023-04-30T02:12:36.998Z,58.20
2023-04-30T02:15:07.938Z,58.40
2023-04-30T02:17:36.463Z,58.10
2023-04-30T02:20:05.611Z,58.60
2023-04-30T02:22:33.755Z,57.80
2023-04-30T02:25:01.953Z,57.50
2023-04-30T02:27:32.156Z,56.40
2023-04-30T02:30:00.955Z,56.10
2023-04-30T02:32:31.631Z,56.30
2023-04-30T02:35:00.061Z,57.60
2023-04-30T02:37:28.330Z,57.50
2023-04-30T02:39:56.812Z,58.00
2023-04-30T02:42:27.115Z,58.20
2023-04-30T02:44:55.296Z,58.50
2023-04-30T02:47:23.521Z,58.60
2023-04-30T02:49:53.400Z,59.10
2023-04-30T02:52:21.663Z,59.00
2023-04-30T02:54:50.318Z,58.80
2023-04-30T02:57:18.527Z,59.60
2023-04-30T02:59:46.693Z,60.00
2023-04-30T03:02:15.630Z,60.20
2023-04-30T03:04:43.840Z,60.70
2023-04-30T03:07:13.412Z,59.60
2023-04-30T03:09:42.061Z,61.00
2023-04-30T03:12:10.301Z,61.50
2023-04-30T03:14:38.630Z,61.20
2023-04-30T03:17:06.945Z,59.80
2023-04-30T03:19:35.184Z,58.20
2023-04-30T03:22:04.882Z,58.70
2023-04-30T03:24:34.477Z,58.20
2023-04-30T03:27:03.382Z,57.60
2023-04-30T03:29:31.549Z,57.40
2023-04-30T03:31:59.884Z,57.80
2023-04-30T03:34:28.071Z,57.90
2023-04-30T03:36:56.351Z,57.20
2023-04-30T03:39:24.532Z,56.90
2023-04-30T03:41:54.173Z,56.60
2023-04-30T03:44:23.023Z,56.60
2023-04-30T03:46:51.363Z,55.90
2023-04-30T03:49:19.552Z,56.00
2023-04-30T03:51:47.890Z,56.50
2023-04-30T03:54:16.188Z,56.70
2023-04-30T03:56:44.662Z,56.70
2023-04-30T03:59:14.510Z,57.80
2023-04-30T04:01:43.127Z,58.30
2023-04-30T04:04:11.561Z,58.70
2023-04-30T04:06:39.987Z,59.40
2023-04-30T04:09:08.959Z,59.60
2023-04-30T04:11:37.191Z,60.60
2023-04-30T04:14:05.630Z,60.70
2023-04-30T04:16:35.210Z,59.80
2023-04-30T04:19:04.517Z,59.70
2023-04-30T04:21:33.567Z,60.60
2023-04-30T04:24:08.503Z,60.10
2023-04-30T04:26:37.285Z,61.00
2023-04-30T04:29:05.902Z,61.90
2023-04-30T04:31:35.697Z,62.00
2023-04-30T04:34:05.472Z,61.20
2023-04-30T04:36:34.244Z,61.30
2023-04-30T04:39:03.846Z,62.20
2023-04-30T04:41:33.223Z,61.50
2023-04-30T04:44:03.298Z,61.00
2023-04-30T04:46:32.351Z,59.80
2023-04-30T04:49:02.185Z,60.00
2023-04-30T04:51:32.208Z,58.40
2023-04-30T04:54:03.490Z,58.20
2023-04-30T04:56:32.071Z,56.60
2023-04-30T04:59:00.467Z,56.50
2023-04-30T05:01:29.522Z,57.10
2023-04-30T05:03:57.912Z,57.40
2023-04-30T05:06:28.679Z,58.80
2023-04-30T05:08:56.918Z,60.00
2023-04-30T05:11:25.073Z,59.60
2023-04-30T05:13:53.598Z,58.80
2023-04-30T05:16:21.816Z,58.20
2023-04-30T05:18:50.015Z,57.60
2023-04-30T05:21:18.290Z,56.30
2023-04-30T05:23:48.653Z,54.80
2023-04-30T05:26:16.848Z,54.50
2023-04-30T05:28:45.304Z,54.60
2023-04-30T05:31:13.543Z,53.40
2023-04-30T05:33:43.627Z,53.60
2023-04-30T05:36:12.151Z,53.90
2023-04-30T05:38:40.370Z,54.90
2023-04-30T05:41:12.099Z,54.10
2023-04-30T05:43:40.412Z,54.20
2023-04-30T05:46:08.783Z,54.80
2023-04-30T05:48:37.004Z,54.30
2023-04-30T05:51:06.080Z,53.90
2023-04-30T05:53:34.569Z,53.90
2023-04-30T05:56:02.763Z,54.60
2023-04-30T05:58:32.858Z,55.20
2023-04-30T06:01:01.123Z,56.40
2023-04-30T06:03:29.307Z,56.80
2023-04-30T06:05:57.562Z,56.60
2023-04-30T06:08:25.816Z,56.40
2023-04-30T06:10:54.004Z,57.10
2023-04-30T06:13:24.293Z,57.20
2023-04-30T06:15:53.922Z,57.10
2023-04-30T06:18:22.075Z,57.90
2023-04-30T06:20:50.260Z,57.40
2023-04-30T06:23:18.438Z,57.70
2023-04-30T06:25:46.625Z,57.20
2023-04-30T06:28:14.800Z,56.80
2023-04-30T06:30:43.082Z,56.50
2023-04-30T06:33:12.666Z,55.30
2023-04-30T06:35:41.528Z,54.80
2023-04-30T06:38:09.712Z,55.50
2023-04-30T06:40:37.900Z,54.60
2023-04-30T06:43:06.198Z,54.40
2023-04-30T06:45:35.350Z,52.70
2023-04-30T06:48:03.633Z,53.10
2023-04-30T06:50:33.246Z,52.90
2023-04-30T06:53:01.579Z,52.40
2023-04-30T06:55:29.937Z,52.40
2023-04-30T06:57:58.101Z,52.20
2023-04-30T07:00:26.513Z,51.90
2023-04-30T07:02:54.879Z,52.40
2023-04-30T07:05:23.272Z,53.10
2023-04-30T07:07:53.001Z,51.20
2023-04-30T07:10:23.354Z,50.00
2023-04-30T07:12:51.521Z,50.30
2023-04-30T07:15:19.750Z,50.50
2023-04-30T07:17:48.020Z,50.90
2023-04-30T07:20:16.301Z,50.90
2023-04-30T07:22:45.994Z,50.60
2023-04-30T07:25:15.854Z,50.90
2023-04-30T07:27:44.932Z,50.50
2023-04-30T07:30:13.281Z,50.20
2023-04-30T07:32:42.714Z,50.00
2023-04-30T07:35:11.643Z,50.00
2023-04-30T07:37:41.709Z,49.90
2023-04-30T07:40:15.359Z,49.40
2023-04-30T07:42:48.969Z,50.10
2023-04-30T07:45:17.430Z,50.10
2023-04-30T07:47:46.075Z,48.90
2023-04-30T07:50:14.888Z,48.30
2023-04-30T07:52:43.183Z,48.00
2023-04-30T07:55:11.527Z,48.70
2023-04-30T07:57:41.893Z,48.30
2023-04-30T08:00:13.501Z,47.10
2023-04-30T08:02:44.141Z,45.90
2023-04-30T08:05:12.741Z,43.90
2023-04-30T08:07:44.560Z,41.80
2023-04-30T08:10:13.047Z,42.00
2023-04-30T08:12:41.322Z,42.20
2023-04-30T08:15:11.171Z,42.00
2023-04-30T08:17:39.390Z,43.10
2023-04-30T08:20:09.513Z,44.20
2023-04-30T08:22:37.711Z,45.10
2023-04-30T08:25:06.798Z,45.00
2023-04-30T08:27:35.126Z,45.90
2023-04-30T08:30:03.356Z,44.60
2023-04-30T08:32:35.746Z,46.00
2023-04-30T08:35:04.342Z,46.20
2023-04-30T08:37:32.574Z,45.30
2023-04-30T08:40:01.181Z,44.80
2023-04-30T08:42:33.039Z,42.40
2023-04-30T08:45:03.290Z,42.00
2023-04-30T08:47:33.188Z,43.00
2023-04-30T08:50:01.550Z,42.90
2023-04-30T08:52:31.011Z,42.40
2023-04-30T08:54:59.880Z,42.20
2023-04-30T08:57:28.096Z,43.10
2023-04-30T08:59:56.645Z,40.80
2023-04-30T09:02:25.347Z,40.50
2023-04-30T09:04:54.999Z,41.10
2023-04-30T09:07:27.953Z,41.80
2023-04-30T09:09:56.412Z,43.20
2023-04-30T09:12:27.079Z,41.60
2023-04-30T09:15:03.455Z,40.20
2023-04-30T09:17:34.531Z,40.90
2023-04-30T09:20:12.203Z,43.10
2023-04-30T09:22:41.873Z,40.80
2023-04-30T09:25:11.253Z,39.40
2023-04-30T09:27:39.447Z,39.10
2023-04-30T09:30:09.443Z,40.40
2023-04-30T09:32:37.706Z,38.30
2023-04-30T09:35:06.618Z,40.10
2023-04-30T09:37:40.783Z,40.10
2023-04-30T09:40:11.676Z,39.70
2023-04-30T09:42:40.075Z,40.50
2023-04-30T09:45:12.025Z,39.60
2023-04-30T09:50:12.095Z,39.00
2023-04-30T09:52:46.747Z,39.70
2023-04-30T09:55:14.927Z,36.00
2023-04-30T09:57:43.427Z,35.90
2023-04-30T10:00:12.882Z,36.90
2023-04-30T10:02:42.124Z,36.80
2023-04-30T10:05:11.055Z,37.30
2023-04-30T10:07:44.692Z,39.00
2023-04-30T10:10:13.612Z,35.70
2023-04-30T10:12:55.191Z,35.00
2023-04-30T10:15:29.387Z,35.90
2023-04-30T10:18:02.226Z,34.70
2023-04-30T10:20:33.036Z,36.10
2023-04-30T10:23:02.876Z,36.00
2023-04-30T10:25:31.553Z,36.80
2023-04-30T10:28:00.592Z,33.00
2023-04-30T10:30:31.723Z,32.80
2023-04-30T10:33:07.631Z,34.30
2023-04-30T10:35:44.734Z,35.50
2023-04-30T10:38:21.738Z,34.80
2023-04-30T10:40:49.950Z,37.00
2023-04-30T10:43:19.936Z,35.30
2023-04-30T10:45:48.648Z,34.90
2023-04-30T10:48:25.490Z,33.90
2023-04-30T10:50:56.237Z,34.10
2023-04-30T10:53:29.121Z,33.60
2023-04-30T10:56:06.396Z,34.90
2023-04-30T10:58:36.257Z,34.00
2023-04-30T11:01:07.077Z,34.80
2023-04-30T11:03:37.156Z,36.90
2023-04-30T11:06:14.686Z,33.90
2023-04-30T11:08:47.379Z,34.40
2023-04-30T11:11:23.917Z,34.90
2023-04-30T11:14:02.694Z,34.30
2023-04-30T11:16:31.557Z,34.40
2023-04-30T11:19:09.491Z,34.20
2023-04-30T11:21:42.371Z,33.60
2023-04-30T11:24:13.836Z,33.40
2023-04-30T11:27:07.101Z,34.80
2023-04-30T11:29:36.310Z,34.70
2023-04-30T11:32:05.807Z,34.60
2023-04-30T11:34:36.154Z,36.70
2023-04-30T11:37:04.940Z,35.20
2023-04-30T11:39:38.045Z,34.20
2023-04-30T11:42:07.264Z,32.90
2023-04-30T11:44:35.765Z,32.00
2023-04-30T11:47:03.997Z,32.40
2023-04-30T11:49:33.473Z,31.00
2023-04-30T11:52:01.875Z,31.30
2023-04-30T11:54:35.151Z,31.90
2023-04-30T11:57:04.363Z,31.90
2023-04-30T11:59:33.354Z,31.30
2023-04-30T12:02:01.738Z,33.90
2023-04-30T12:04:30.149Z,32.30
2023-04-30T12:06:58.984Z,31.30
2023-04-30T12:09:31.031Z,33.10
2023-04-30T12:12:00.800Z,34.20
2023-04-30T12:14:33.716Z,33.30
2023-04-30T12:17:02.116Z,33.60
2023-04-30T12:19:30.519Z,34.50
2023-04-30T12:21:58.788Z,35.90
2023-04-30T12:24:28.481Z,35.20
2023-04-30T12:26:56.690Z,33.50
2023-04-30T12:29:26.270Z,33.50
2023-04-30T12:31:55.891Z,33.90
2023-04-30T12:34:28.345Z,33.90
2023-04-30T12:37:01.652Z,31.90
2023-04-30T12:39:34.802Z,33.00
2023-04-30T12:42:04.537Z,34.00
2023-04-30T12:44:45.458Z,32.70
2023-04-30T12:47:14.273Z,33.30
2023-04-30T12:49:47.089Z,33.20
2023-04-30T12:52:15.614Z,33.10
2023-04-30T12:54:44.445Z,31.70
2023-04-30T12:57:13.937Z,32.40
2023-04-30T12:59:58.926Z,33.00
2023-04-30T13:02:31.923Z,32.30
2023-04-30T13:05:00.989Z,32.20
2023-04-30T13:07:38.552Z,33.50
2023-04-30T13:10:07.764Z,33.10
2023-04-30T13:12:36.049Z,33.00
2023-04-30T13:15:07.910Z,33.40
2023-04-30T13:17:36.507Z,33.60
2023-04-30T13:20:06.684Z,33.70
2023-04-30T13:22:34.967Z,34.40
2023-04-30T13:25:03.247Z,32.10
2023-04-30T13:27:31.460Z,33.50
2023-04-30T13:29:59.687Z,32.80
2023-04-30T13:32:31.955Z,31.70
2023-04-30T13:35:00.332Z,31.60
2023-04-30T13:37:28.524Z,32.70
2023-04-30T13:39:57.039Z,32.00
2023-04-30T13:42:26.616Z,31.60
2023-04-30T13:44:54.803Z,31.50
2023-04-30T13:47:23.029Z,31.60
2023-04-30T13:49:53.103Z,33.00
2023-04-30T13:52:21.610Z,33.30
2023-04-30T13:54:49.827Z,32.30
2023-04-30T13:57:18.054Z,32.70
2023-04-30T13:59:46.918Z,32.10
2023-04-30T14:02:15.263Z,30.20
2023-04-30T14:04:54.730Z,30.90
2023-04-30T14:07:33.343Z,31.00
2023-04-30T14:10:01.543Z,30.50
2023-04-30T14:12:30.651Z,31.30
2023-04-30T14:14:59.275Z,31.40
2023-04-30T14:17:28.254Z,32.70
2023-04-30T14:19:57.028Z,31.80
2023-04-30T14:22:25.507Z,31.60
2023-04-30T14:24:55.074Z,31.40
2023-04-30T14:27:23.516Z,30.30
2023-04-30T14:29:51.697Z,29.80
2023-04-30T14:32:20.054Z,31.30
2023-04-30T14:34:48.825Z,31.60
2023-04-30T14:37:17.536Z,31.60
2023-04-30T14:39:46.105Z,32.30
2023-04-30T14:42:15.773Z,31.40
2023-04-30T14:44:44.427Z,31.30
2023-04-30T14:47:13.073Z,31.70
2023-04-30T14:49:41.627Z,30.30
2023-04-30T14:52:09.928Z,30.00
2023-04-30T14:54:38.571Z,30.90
2023-04-30T14:57:06.906Z,31.90
2023-04-30T14:59:38.812Z,32.30
2023-04-30T15:02:11.083Z,32.20
2023-04-30T15:04:39.486Z,32.60
2023-04-30T15:07:07.739Z,31.20
2023-04-30T15:09:35.941Z,30.20
2023-04-30T15:12:04.209Z,31.50
2023-04-30T15:14:32.428Z,31.60
2023-04-30T15:17:02.188Z,31.50
2023-04-30T15:19:31.329Z,31.50
2023-04-30T15:21:59.506Z,32.40
2023-04-30T15:24:30.582Z,31.10
2023-04-30T15:26:58.904Z,30.90
2023-04-30T15:29:30.326Z,30.50
2023-04-30T15:31:59.683Z,30.50
2023-04-30T15:34:30.592Z,30.30
2023-04-30T15:36:59.034Z,30.00
2023-04-30T15:39:30.107Z,30.00
2023-04-30T15:41:58.356Z,29.10
2023-04-30T15:44:27.075Z,29.50
2023-04-30T15:46:55.811Z,30.30
2023-04-30T15:49:24.644Z,29.80
2023-04-30T15:51:54.351Z,29.40
2023-04-30T15:54:23.440Z,29.10
2023-04-30T15:56:52.516Z,28.70
2023-04-30T15:59:20.706Z,28.10
2023-04-30T16:01:48.950Z,28.20
2023-04-30T16:04:17.478Z,28.30
2023-04-30T16:06:46.526Z,29.00
2023-04-30T16:09:19.632Z,28.90
2023-04-30T16:11:48.374Z,28.50
2023-04-30T16:14:16.650Z,28.50
2023-04-30T16:16:44.974Z,27.80
2023-04-30T16:19:13.981Z,28.60
2023-04-30T16:21:42.245Z,28.10
2023-04-30T16:24:10.938Z,28.30
2023-04-30T16:26:40.525Z,27.90
2023-04-30T16:29:09.103Z,28.50
2023-04-30T16:31:37.404Z,28.20
2023-04-30T16:34:05.911Z,28.70
2023-04-30T16:36:34.100Z,27.80
2023-04-30T16:39:03.965Z,28.20
2023-04-30T16:41:32.168Z,28.90
2023-04-30T16:44:01.739Z,28.70
2023-04-30T16:46:30.233Z,28.50
2023-04-30T16:48:58.645Z,28.10
2023-04-30T16:51:29.396Z,28.40
2023-04-30T16:53:57.734Z,28.60
2023-04-30T16:56:26.907Z,28.70
2023-04-30T16:58:55.081Z,29.70
2023-04-30T17:01:24.962Z,29.70
2023-04-30T17:03:53.371Z,29.40
2023-04-30T17:06:21.642Z,28.30
2023-04-30T17:08:49.855Z,28.00
2023-04-30T17:11:21.057Z,28.10
2023-04-30T17:13:49.242Z,28.00
2023-04-30T17:16:17.584Z,28.20
2023-04-30T17:18:47.664Z,28.10
2023-04-30T17:21:16.020Z,27.80
2023-04-30T17:23:44.306Z,27.90
2023-04-30T17:26:12.529Z,26.80
2023-04-30T17:28:43.448Z,26.60
2023-04-30T17:31:11.692Z,27.70
2023-04-30T17:33:43.035Z,27.20
2023-04-30T17:36:13.713Z,27.20
2023-04-30T17:38:41.842Z,27.80
2023-04-30T17:41:10.020Z,28.10
2023-04-30T17:43:38.184Z,27.20
2023-04-30T17:46:09.461Z,27.70
2023-04-30T17:48:37.634Z,28.10
2023-04-30T17:51:06.147Z,26.60
2023-04-30T17:53:35.689Z,27.20
2023-04-30T17:56:04.870Z,27.70
2023-04-30T17:58:33.036Z,27.20
2023-04-30T18:01:03.472Z,27.20
2023-04-30T18:03:32.541Z,27.20
2023-04-30T18:06:03.706Z,27.40
2023-04-30T18:08:32.045Z,27.50
2023-04-30T18:11:03.057Z,27.00
2023-04-30T18:13:31.549Z,27.10
2023-04-30T18:16:02.221Z,27.00
2023-04-30T18:18:30.972Z,27.60
2023-04-30T18:21:01.392Z,27.90
2023-04-30T18:23:29.547Z,27.10
2023-04-30T18:25:57.726Z,27.30
2023-04-30T18:28:27.579Z,27.50
2023-04-30T18:30:55.893Z,27.70
2023-04-30T18:33:24.063Z,27.30
2023-04-30T18:35:52.743Z,27.50
2023-04-30T18:38:20.928Z,27.70
2023-04-30T18:40:49.104Z,27.60
2023-04-30T18:43:17.319Z,27.80
2023-04-30T18:45:46.920Z,28.00
2023-04-30T18:48:18.850Z,28.00
2023-04-30T18:50:47.691Z,28.00
2023-04-30T18:53:16.896Z,29.00
2023-04-30T18:55:45.965Z,28.50
2023-04-30T18:58:14.116Z,28.70
2023-04-30T19:00:43.632Z,28.60
2023-04-30T19:03:13.259Z,28.80
2023-04-30T19:05:43.990Z,29.00
2023-04-30T19:08:12.172Z,29.30
2023-04-30T19:10:40.439Z,29.60
2023-04-30T19:13:08.580Z,29.60
2023-04-30T19:15:36.971Z,30.20
2023-04-30T19:18:05.348Z,30.90
2023-04-30T19:20:34.937Z,31.20
2023-04-30T19:23:03.654Z,30.80
2023-04-30T19:25:32.083Z,31.10
2023-04-30T19:28:00.229Z,31.10
2023-04-30T19:30:30.096Z,31.70
2023-04-30T19:33:00.641Z,31.50
2023-04-30T19:35:28.911Z,31.40
2023-04-30T19:37:58.409Z,31.50
2023-04-30T19:40:26.624Z,31.80
2023-04-30T19:42:55.240Z,32.10
2023-04-30T19:45:23.389Z,32.10
2023-04-30T19:47:51.574Z,32.60
2023-04-30T19:50:20.167Z,32.40
2023-04-30T19:52:48.624Z,32.20
2023-04-30T19:55:18.437Z,32.40
2023-04-30T19:57:47.817Z,32.90
2023-04-30T20:00:16.625Z,33.50
2023-04-30T20:02:45.098Z,33.30
2023-04-30T20:05:14.098Z,32.90
2023-04-30T20:07:42.285Z,33.00
2023-04-30T20:10:11.649Z,32.30
2023-04-30T20:12:41.359Z,33.50
2023-04-30T20:15:10.360Z,32.10
2023-04-30T20:17:38.651Z,32.80
2023-04-30T20:20:07.934Z,32.30
2023-04-30T20:22:36.200Z,33.00
2023-04-30T20:25:04.724Z,33.20
2023-04-30T20:27:36.054Z,33.20
2023-04-30T20:30:06.941Z,33.10
2023-04-30T20:32:35.495Z,32.70
2023-04-30T20:35:04.605Z,32.80
2023-04-30T20:37:33.235Z,32.70
2023-04-30T20:40:02.241Z,32.70
2023-04-30T20:42:30.611Z,32.80
2023-04-30T20:44:59.186Z,33.10
2023-04-30T20:47:28.762Z,33.00
2023-04-30T20:49:58.528Z,32.80
2023-04-30T20:52:27.098Z,33.00
2023-04-30T20:54:55.450Z,32.90
2023-04-30T20:57:23.964Z,33.00
2023-04-30T20:59:52.131Z,33.40
2023-04-30T21:02:20.364Z,32.60
2023-04-30T21:04:49.912Z,32.60
2023-04-30T21:07:18.169Z,32.30
2023-04-30T21:09:48.440Z,32.70
2023-04-30T21:12:16.634Z,32.00
2023-04-30T21:14:45.010Z,31.80
2023-04-30T21:17:14.855Z,32.00
2023-04-30T21:19:43.888Z,32.00
2023-04-30T21:22:13.392Z,31.60
2023-04-30T21:24:41.677Z,31.20
2023-04-30T21:27:10.130Z,31.00
2023-04-30T21:29:38.650Z,31.50
2023-04-30T21:32:10.234Z,31.60
2023-04-30T21:34:38.419Z,31.30
2023-04-30T21:37:06.638Z,31.50
2023-04-30T21:39:36.150Z,32.10
2023-04-30T21:42:04.521Z,32.10
2023-04-30T21:44:33.671Z,31.80
2023-04-30T21:47:03.627Z,31.80
2023-04-30T21:49:32.368Z,31.40
2023-04-30T21:52:00.569Z,32.90
2023-04-30T21:54:28.769Z,32.00
2023-04-30T21:56:58.337Z,33.00
2023-04-30T21:59:26.674Z,32.70
2023-04-30T22:01:54.849Z,32.80
2023-04-30T22:04:25.283Z,32.60
2023-04-30T22:06:53.782Z,33.00
2023-04-30T22:09:22.316Z,32.90
2023-04-30T22:11:50.594Z,33.80
2023-04-30T22:14:20.177Z,33.50
2023-04-30T22:16:48.490Z,33.10
2023-04-30T22:19:16.800Z,33.50
2023-04-30T22:21:44.993Z,33.10
2023-04-30T22:24:13.326Z,33.30
2023-04-30T22:26:41.481Z,33.50
2023-04-30T22:29:09.669Z,33.60
2023-04-30T22:31:39.682Z,34.20
2023-04-30T22:34:09.272Z,35.40
2023-04-30T22:36:37.661Z,35.10
2023-04-30T22:39:05.965Z,35.30
2023-04-30T22:41:35.250Z,36.00
2023-04-30T22:44:03.664Z,36.60
2023-04-30T22:46:33.496Z,35.60
2023-04-30T22:49:04.656Z,35.10
2023-04-30T22:51:36.370Z,35.80
2023-04-30T22:54:04.702Z,37.20
2023-04-30T22:56:33.866Z,38.60
2023-04-30T22:59:02.191Z,37.50
2023-04-30T23:01:30.501Z,36.60
2023-04-30T23:03:58.732Z,36.10
2023-04-30T23:06:29.899Z,36.20
2023-04-30T23:08:58.175Z,36.30
2023-04-30T23:11:29.464Z,36.40
2023-04-30T23:13:57.708Z,37.00
2023-04-30T23:16:25.967Z,36.60
2023-04-30T23:18:54.179Z,36.70
2023-04-30T23:21:25.362Z,37.40
2023-04-30T23:23:54.930Z,37.40
2023-04-30T23:26:23.192Z,37.70
2023-04-30T23:28:51.426Z,38.10
2023-04-30T23:31:19.580Z,38.40
2023-04-30T23:33:48.003Z,39.20
2023-04-30T23:36:16.246Z,37.20
2023-04-30T23:38:46.546Z,37.40
2023-04-30T23:41:16.242Z,38.20
2023-04-30T23:43:44.421Z,38.90
2023-04-30T23:46:12.630Z,38.10
2023-04-30T23:48:40.904Z,37.70
2023-04-30T23:51:09.251Z,37.70
2023-04-30T23:53:37.446Z,38.30
2023-04-30T23:56:06.097Z,38.10
2023-04-30T23:58:35.643Z,38.20
